createdAt,value
2017-09-15T00:02:04.823Z,11.90
2017-09-15T00:04:32.278Z,11.90
2017-09-15T00:06:59.738Z,12.00
2017-09-15T00:09:27.229Z,12.00
2017-09-15T00:11:54.678Z,12.10
2017-09-15T00:14:22.527Z,12.00
2017-09-15T00:16:50.026Z,12.00
2017-09-15T00:19:17.482Z,12.10
2017-09-15T00:21:44.938Z,12.10
2017-09-15T00:24:12.413Z,12.20
2017-09-15T00:26:39.862Z,12.20
2017-09-15T00:29:07.310Z,12.20
2017-09-15T00:31:34.949Z,12.20
2017-09-15T00:34:02.405Z,12.20
2017-09-15T00:36:29.864Z,12.10
2017-09-15T00:38:57.325Z,12.10
2017-09-15T00:41:24.785Z,12.10
2017-09-15T00:43:52.245Z,12.10
2017-09-15T00:46:19.706Z,12.10
2017-09-15T00:48:47.170Z,12.10
2017-09-15T00:51:14.622Z,12.10
2017-09-15T00:53:42.117Z,12.10
2017-09-15T00:56:09.965Z,12.10
2017-09-15T00:58:37.428Z,12.10
2017-09-15T01:01:05.007Z,12.10
2017-09-15T01:03:32.859Z,12.20
2017-09-15T01:06:00.703Z,12.20
2017-09-15T01:08:28.186Z,12.20
2017-09-15T01:10:56.034Z,12.30
2017-09-15T01:13:23.493Z,12.30
2017-09-15T01:15:51.334Z,12.30
2017-09-15T01:18:18.781Z,12.30
2017-09-15T01:20:46.238Z,12.30
2017-09-15T01:23:13.717Z,12.30
2017-09-15T01:25:41.397Z,12.20
2017-09-15T01:28:09.251Z,12.20
2017-09-15T01:30:37.125Z,12.20
2017-09-15T01:33:04.974Z,12.20
2017-09-15T01:35:32.426Z,12.20
2017-09-15T01:37:59.938Z,12.10
2017-09-15T01:40:27.389Z,12.00
2017-09-15T01:42:54.847Z,12.00
2017-09-15T01:45:22.340Z,11.90
2017-09-15T01:47:49.862Z,11.80
2017-09-15T01:50:17.329Z,11.80
2017-09-15T01:52:44.779Z,11.80
2017-09-15T01:55:12.254Z,11.70
2017-09-15T01:57:39.742Z,11.70
2017-09-15T02:00:07.589Z,11.70
2017-09-15T02:02:35.041Z,11.70
2017-09-15T02:05:02.523Z,11.60
2017-09-15T02:07:30.380Z,11.60
2017-09-15T02:09:58.238Z,11.60
2017-09-15T02:12:26.098Z,11.60
2017-09-15T02:14:53.551Z,11.60
2017-09-15T02:17:21.002Z,11.60
2017-09-15T02:19:48.649Z,11.60
2017-09-15T02:22:16.107Z,11.60
2017-09-15T02:24:43.562Z,11.50
2017-09-15T02:27:11.039Z,11.50
2017-09-15T02:29:38.491Z,11.50
2017-09-15T02:32:05.950Z,11.50
2017-09-15T02:34:33.814Z,11.50
2017-09-15T02:37:01.664Z,11.50
2017-09-15T02:39:29.114Z,11.50
2017-09-15T02:41:56.774Z,11.50
2017-09-15T02:44:24.229Z,11.40
2017-09-15T02:46:51.677Z,11.40
2017-09-15T02:49:19.353Z,11.30
2017-09-15T02:51:46.807Z,11.30
2017-09-15T02:54:14.276Z,11.30
2017-09-15T02:56:41.741Z,11.30
2017-09-15T02:59:09.590Z,11.30
2017-09-15T03:01:37.042Z,11.30
2017-09-15T03:04:05.075Z,11.20
2017-09-15T03:06:32.542Z,11.20
2017-09-15T03:08:59.999Z,11.20
2017-09-15T03:11:27.483Z,11.20
2017-09-15T03:13:55.344Z,11.20
2017-09-15T03:16:23.208Z,11.20
2017-09-15T03:18:50.709Z,11.20
2017-09-15T03:21:18.172Z,11.20
2017-09-15T03:23:45.635Z,11.20
2017-09-15T03:26:13.129Z,11.20
2017-09-15T03:28:40.987Z,11.10
2017-09-15T03:31:08.451Z,11.10
2017-09-15T03:33:35.927Z,11.10
2017-09-15T03:36:03.778Z,11.10
2017-09-15T03:38:31.627Z,11.10
2017-09-15T03:40:59.111Z,11.10
2017-09-15T03:43:26.966Z,11.00
2017-09-15T03:45:54.827Z,11.00
2017-09-15T03:48:22.323Z,11.00
2017-09-15T03:50:49.790Z,11.00
2017-09-15T03:53:17.246Z,11.00
2017-09-15T03:55:44.720Z,10.90
2017-09-15T03:58:12.187Z,10.90
2017-09-15T04:00:39.655Z,10.80
2017-09-15T04:03:07.530Z,10.80
2017-09-15T04:05:35.391Z,10.80
2017-09-15T04:08:03.247Z,10.90
2017-09-15T04:10:30.703Z,10.90
2017-09-15T04:12:58.212Z,10.90
2017-09-15T04:15:25.673Z,10.90
2017-09-15T04:17:53.131Z,10.80
2017-09-15T04:20:20.595Z,10.70
2017-09-15T04:22:48.189Z,10.70
2017-09-15T04:25:15.646Z,10.70
2017-09-15T04:27:43.528Z,10.70
2017-09-15T04:30:11.263Z,10.70
2017-09-15T04:32:38.714Z,10.70
2017-09-15T04:35:07.220Z,10.60
2017-09-15T04:37:34.727Z,10.60
2017-09-15T04:40:02.191Z,10.60
2017-09-15T04:42:29.662Z,10.60
2017-09-15T04:44:57.147Z,10.60
2017-09-15T04:47:24.616Z,10.60
2017-09-15T04:49:52.075Z,10.60
2017-09-15T04:52:19.885Z,10.70
2017-09-15T04:54:48.575Z,10.70
2017-09-15T04:57:16.035Z,10.70
2017-09-15T04:59:43.503Z,10.80
2017-09-15T05:02:11.356Z,10.80
2017-09-15T05:04:38.813Z,10.80
2017-09-15T05:07:06.373Z,10.70
2017-09-15T05:09:34.224Z,10.70
2017-09-15T05:12:01.679Z,10.70
2017-09-15T05:14:29.438Z,10.70
2017-09-15T05:16:56.903Z,10.70
2017-09-15T05:19:24.364Z,10.70
2017-09-15T05:21:52.415Z,10.70
2017-09-15T05:24:19.879Z,10.70
2017-09-15T05:26:47.335Z,10.80
2017-09-15T05:29:14.823Z,10.80
2017-09-15T05:31:42.276Z,10.70
2017-09-15T05:34:10.123Z,10.80
2017-09-15T05:36:38.103Z,10.80
2017-09-15T05:39:05.952Z,10.90
2017-09-15T05:41:33.799Z,10.90
2017-09-15T05:44:01.519Z,11.00
2017-09-15T05:46:28.979Z,10.90
2017-09-15T05:48:56.435Z,10.80
2017-09-15T05:51:23.886Z,10.90
2017-09-15T05:53:51.347Z,10.90
2017-09-15T05:56:18.939Z,10.90
2017-09-15T05:58:46.395Z,11.00
2017-09-15T06:01:13.847Z,11.00
2017-09-15T06:03:41.327Z,11.00
2017-09-15T06:06:09.181Z,11.00
2017-09-15T06:08:36.636Z,11.00
2017-09-15T06:11:04.515Z,11.10
2017-09-15T06:13:32.366Z,11.10
2017-09-15T06:15:59.822Z,11.10
2017-09-15T06:18:27.286Z,11.10
2017-09-15T06:20:55.152Z,11.10
2017-09-15T06:23:22.997Z,11.10
2017-09-15T06:25:50.648Z,11.10
2017-09-15T06:28:18.098Z,11.20
2017-09-15T06:30:45.565Z,11.20
2017-09-15T06:33:13.050Z,11.20
2017-09-15T06:35:40.914Z,11.30
2017-09-15T06:38:08.762Z,11.30
2017-09-15T06:40:36.620Z,11.30
2017-09-15T06:43:04.267Z,11.30
2017-09-15T06:45:31.728Z,11.50
2017-09-15T06:47:59.190Z,11.40
2017-09-15T06:50:26.643Z,11.40
2017-09-15T06:52:54.087Z,11.50
2017-09-15T06:55:21.569Z,11.50
2017-09-15T06:57:49.020Z,11.60
2017-09-15T07:00:16.862Z,11.60
2017-09-15T07:02:44.439Z,11.60
2017-09-15T07:05:11.903Z,11.60
2017-09-15T07:07:39.743Z,11.50
2017-09-15T07:10:07.221Z,11.60
2017-09-15T07:12:35.070Z,11.60
2017-09-15T07:15:02.526Z,11.60
2017-09-15T07:17:34.540Z,11.60
2017-09-15T07:20:01.988Z,11.70
2017-09-15T07:22:29.775Z,11.90
2017-09-15T07:24:57.255Z,11.90
2017-09-15T07:27:24.698Z,11.80
2017-09-15T07:29:52.156Z,11.80
2017-09-15T07:32:19.620Z,11.70
2017-09-15T07:34:47.121Z,11.90
2017-09-15T07:37:14.562Z,11.90
2017-09-15T07:39:42.412Z,12.30
2017-09-15T07:42:10.278Z,12.40
2017-09-15T07:44:38.131Z,12.60
2017-09-15T07:47:05.995Z,12.70
2017-09-15T07:49:33.857Z,12.70
2017-09-15T07:52:01.310Z,12.80
2017-09-15T07:54:28.764Z,12.80
2017-09-15T07:56:56.235Z,13.10
2017-09-15T07:59:24.083Z,13.30
2017-09-15T08:01:51.534Z,13.30
2017-09-15T08:04:19.291Z,13.50
2017-09-15T08:06:46.744Z,13.20
2017-09-15T08:09:14.203Z,13.20
2017-09-15T08:11:41.931Z,13.20
2017-09-15T08:14:09.391Z,13.40
2017-09-15T08:16:36.858Z,13.60
2017-09-15T08:19:04.489Z,13.70
2017-09-15T08:21:31.945Z,14.00
2017-09-15T08:23:59.405Z,13.80
2017-09-15T08:26:27.107Z,13.90
2017-09-15T08:28:54.562Z,14.10
2017-09-15T08:31:22.031Z,14.10
2017-09-15T08:33:49.520Z,14.20
2017-09-15T08:36:16.971Z,14.20
2017-09-15T08:38:44.473Z,14.20
2017-09-15T08:41:12.031Z,14.40
2017-09-15T08:43:39.503Z,14.60
2017-09-15T08:46:06.960Z,14.60
2017-09-15T08:48:34.456Z,14.40
2017-09-15T08:51:01.910Z,14.60
2017-09-15T08:53:29.362Z,14.80
2017-09-15T08:55:56.863Z,14.70
2017-09-15T08:58:24.323Z,14.80
2017-09-15T09:00:51.782Z,14.90
2017-09-15T09:05:53.575Z,15.20
2017-09-15T09:08:21.732Z,15.00
2017-09-15T09:10:49.187Z,15.00
2017-09-15T09:13:16.645Z,14.60
2017-09-15T09:15:44.113Z,15.10
2017-09-15T09:18:11.572Z,15.40
2017-09-15T09:20:39.414Z,15.20
2017-09-15T09:23:06.887Z,15.20
2017-09-15T09:25:34.730Z,15.20
2017-09-15T09:28:02.188Z,15.20
2017-09-15T09:30:29.683Z,15.30
2017-09-15T09:32:57.144Z,15.10
2017-09-15T09:35:24.599Z,14.90
2017-09-15T09:37:52.316Z,15.30
2017-09-15T09:40:19.771Z,15.30
2017-09-15T09:42:47.225Z,15.10
2017-09-15T09:45:14.723Z,15.30
2017-09-15T09:47:42.176Z,15.80
2017-09-15T09:50:09.627Z,16.10
2017-09-15T09:52:37.499Z,16.30
2017-09-15T09:55:04.983Z,16.30
2017-09-15T09:57:32.454Z,15.70
2017-09-15T09:59:59.931Z,15.80
2017-09-15T10:02:27.387Z,16.20
2017-09-15T10:04:54.846Z,16.00
2017-09-15T10:07:22.590Z,16.40
2017-09-15T10:09:50.052Z,16.50
2017-09-15T10:12:17.520Z,16.70
2017-09-15T10:14:44.976Z,16.50
2017-09-15T10:17:12.834Z,16.40
2017-09-15T10:19:40.303Z,16.40
2017-09-15T10:22:08.155Z,16.20
2017-09-15T10:24:35.620Z,16.20
2017-09-15T10:27:03.770Z,16.30
2017-09-15T10:29:31.228Z,16.30
2017-09-15T10:31:58.731Z,16.40
2017-09-15T10:34:26.198Z,16.10
2017-09-15T10:36:53.660Z,15.90
2017-09-15T10:39:21.118Z,16.10
2017-09-15T10:41:48.688Z,16.70
2017-09-15T10:44:16.141Z,17.30
2017-09-15T10:46:43.596Z,17.00
2017-09-15T10:49:11.089Z,17.00
2017-09-15T10:51:38.539Z,17.40
2017-09-15T10:54:06.003Z,17.50
2017-09-15T10:56:33.467Z,17.60
2017-09-15T10:59:07.099Z,16.50
2017-09-15T11:01:34.606Z,16.50
2017-09-15T11:04:02.067Z,16.20
2017-09-15T11:06:29.918Z,16.10
2017-09-15T11:08:57.374Z,16.10
2017-09-15T11:11:24.831Z,16.20
2017-09-15T11:13:52.482Z,16.30
2017-09-15T11:16:19.943Z,16.90
2017-09-15T11:18:47.395Z,17.80
2017-09-15T11:21:15.015Z,17.30
2017-09-15T11:23:42.474Z,17.50
2017-09-15T11:26:09.932Z,16.80
2017-09-15T11:28:37.435Z,16.30
2017-09-15T11:31:05.295Z,16.50
2017-09-15T11:33:32.751Z,16.50
2017-09-15T11:36:00.231Z,17.70
2017-09-15T11:38:27.684Z,17.80
2017-09-15T11:40:56.351Z,17.20
2017-09-15T11:43:24.223Z,16.90
2017-09-15T11:45:52.083Z,18.40
2017-09-15T11:48:19.926Z,18.00
2017-09-15T11:50:47.504Z,18.00
2017-09-15T11:53:15.361Z,17.00
2017-09-15T11:55:42.806Z,17.00
2017-09-15T11:58:10.278Z,16.90
2017-09-15T12:00:38.127Z,18.00
2017-09-15T12:03:05.579Z,17.90
2017-09-15T12:05:33.071Z,20.70
2017-09-15T12:08:00.911Z,20.10
2017-09-15T12:10:28.367Z,20.20
2017-09-15T12:12:56.022Z,20.30
2017-09-15T12:15:23.473Z,20.80
2017-09-15T12:17:50.922Z,20.70
2017-09-15T12:20:18.999Z,21.60
2017-09-15T12:22:46.455Z,19.40
2017-09-15T12:25:13.911Z,20.20
2017-09-15T12:27:41.790Z,20.90
2017-09-15T12:30:09.644Z,22.00
2017-09-15T12:32:37.098Z,22.10
2017-09-15T12:35:04.978Z,18.10
2017-09-15T12:37:32.827Z,17.60
2017-09-15T12:40:00.282Z,17.60
2017-09-15T12:42:27.751Z,18.80
2017-09-15T12:44:55.611Z,20.20
2017-09-15T12:47:23.054Z,20.30
2017-09-15T12:49:50.514Z,21.60
2017-09-15T12:52:17.971Z,22.40
2017-09-15T12:54:45.710Z,22.40
2017-09-15T12:57:13.167Z,22.10
2017-09-15T12:59:40.627Z,20.70
2017-09-15T13:02:08.111Z,19.30
2017-09-15T13:04:35.966Z,18.60
2017-09-15T13:07:03.414Z,18.70
2017-09-15T13:09:30.907Z,21.10
2017-09-15T13:11:58.368Z,21.40
2017-09-15T13:14:25.826Z,18.70
2017-09-15T13:16:54.888Z,19.00
2017-09-15T13:19:22.450Z,19.00
2017-09-15T13:21:49.906Z,21.20
2017-09-15T13:24:17.398Z,22.10
2017-09-15T13:26:44.851Z,21.70
2017-09-15T13:29:12.303Z,21.00
2017-09-15T13:31:40.011Z,20.30
2017-09-15T13:34:07.470Z,17.70
2017-09-15T13:36:34.914Z,17.20
2017-09-15T13:39:02.490Z,17.10
2017-09-15T13:41:30.342Z,16.80
2017-09-15T13:43:57.792Z,16.80
2017-09-15T13:46:25.427Z,16.70
2017-09-15T13:48:52.886Z,16.70
2017-09-15T13:51:20.348Z,16.90
2017-09-15T13:53:47.819Z,19.00
2017-09-15T13:56:15.280Z,20.20
2017-09-15T13:58:42.726Z,21.00
2017-09-15T14:01:10.593Z,20.00
2017-09-15T14:03:38.043Z,20.60
2017-09-15T14:06:05.498Z,21.30
2017-09-15T14:08:33.265Z,18.40
2017-09-15T14:11:00.727Z,19.40
2017-09-15T14:13:28.199Z,19.10
2017-09-15T14:15:56.238Z,19.60
2017-09-15T14:18:23.700Z,19.60
2017-09-15T14:20:51.158Z,21.10
2017-09-15T14:23:18.921Z,21.00
2017-09-15T14:25:46.779Z,21.00
2017-09-15T14:28:14.242Z,21.00
2017-09-15T14:30:41.699Z,21.20
2017-09-15T14:33:09.551Z,21.20
2017-09-15T14:35:37.123Z,21.20
2017-09-15T14:38:04.983Z,20.60
2017-09-15T14:40:32.443Z,20.60
2017-09-15T14:42:59.943Z,20.40
2017-09-15T14:45:27.398Z,20.50
2017-09-15T14:47:54.852Z,20.60
2017-09-15T14:50:22.563Z,20.40
2017-09-15T14:52:50.015Z,21.10
2017-09-15T14:55:17.466Z,21.00
2017-09-15T14:57:45.128Z,19.60
2017-09-15T15:00:12.583Z,18.50
2017-09-15T15:02:40.035Z,17.30
2017-09-15T15:05:07.607Z,17.10
2017-09-15T15:07:35.057Z,17.00
2017-09-15T15:10:02.519Z,16.90
2017-09-15T15:12:30.886Z,16.70
2017-09-15T15:14:58.343Z,16.70
2017-09-15T15:17:25.842Z,16.90
2017-09-15T15:19:53.304Z,16.70
2017-09-15T15:22:20.769Z,16.60
2017-09-15T15:24:48.272Z,16.70
2017-09-15T15:27:15.726Z,16.60
2017-09-15T15:29:43.179Z,16.60
2017-09-15T15:32:10.694Z,16.40
2017-09-15T15:34:38.147Z,16.40
2017-09-15T15:37:05.604Z,16.30
2017-09-15T15:39:33.142Z,16.30
2017-09-15T15:42:00.598Z,16.30
2017-09-15T15:44:28.063Z,16.30
2017-09-15T15:46:55.706Z,16.30
2017-09-15T15:49:23.154Z,16.60
2017-09-15T15:51:50.618Z,16.70
2017-09-15T15:54:18.087Z,17.00
2017-09-15T15:56:45.548Z,17.00
2017-09-15T15:59:13.003Z,16.80
2017-09-15T16:01:40.799Z,16.80
2017-09-15T16:04:08.255Z,16.80
2017-09-15T16:06:35.716Z,16.60
2017-09-15T16:09:03.464Z,16.40
2017-09-15T16:11:30.991Z,16.50
2017-09-15T16:13:58.446Z,16.40
2017-09-15T16:16:25.965Z,16.40
2017-09-15T16:18:53.807Z,16.40
2017-09-15T16:21:21.268Z,16.40
2017-09-15T16:23:49.330Z,16.30
2017-09-15T16:26:16.786Z,16.30
2017-09-15T16:28:44.242Z,16.60
2017-09-15T16:31:11.714Z,16.50
2017-09-15T16:33:39.572Z,16.40
2017-09-15T16:36:07.572Z,16.40
2017-09-15T16:38:41.298Z,16.10
2017-09-15T16:41:14.523Z,16.00
2017-09-15T16:43:47.928Z,16.00
2017-09-15T16:46:21.019Z,15.90
2017-09-15T16:48:54.274Z,15.80
2017-09-15T16:51:21.735Z,15.70
2017-09-15T16:53:49.192Z,15.60
2017-09-15T16:56:16.958Z,15.50
2017-09-15T16:58:44.423Z,15.50
2017-09-15T17:01:11.879Z,15.50
2017-09-15T17:03:39.336Z,15.40
2017-09-15T17:06:06.792Z,15.40
2017-09-15T17:08:34.553Z,15.30
2017-09-15T17:11:02.007Z,15.30
2017-09-15T17:13:29.466Z,15.20
2017-09-15T17:15:56.935Z,15.10
2017-09-15T17:18:24.788Z,15.00
2017-09-15T17:20:52.449Z,15.00
2017-09-15T17:23:20.321Z,14.80
2017-09-15T17:25:48.179Z,14.70
2017-09-15T17:28:15.695Z,14.70
2017-09-15T17:30:43.155Z,14.70
2017-09-15T17:33:10.614Z,14.60
2017-09-15T17:35:38.119Z,14.60
2017-09-15T17:38:05.968Z,14.40
2017-09-15T17:40:33.426Z,14.40
2017-09-15T17:43:01.489Z,14.30
2017-09-15T17:45:28.951Z,14.30
2017-09-15T17:47:56.810Z,14.20
2017-09-15T17:50:24.276Z,14.20
2017-09-15T17:52:52.139Z,14.10
2017-09-15T17:55:20.057Z,14.00
2017-09-15T17:57:47.519Z,14.00
2017-09-15T18:00:15.000Z,14.00
2017-09-15T18:02:42.474Z,13.90
2017-09-15T18:05:10.341Z,13.90
2017-09-15T18:07:38.203Z,13.80
2017-09-15T18:10:06.079Z,13.80
2017-09-15T18:12:33.941Z,13.80
2017-09-15T18:15:01.829Z,13.80
2017-09-15T18:17:29.294Z,13.80
2017-09-15T18:19:56.771Z,13.70
2017-09-15T18:22:24.551Z,13.60
2017-09-15T18:24:52.033Z,13.60
2017-09-15T18:27:19.959Z,13.50
2017-09-15T18:29:47.673Z,13.50
2017-09-15T18:32:15.368Z,13.50
2017-09-15T18:34:43.037Z,13.50
2017-09-15T18:37:10.551Z,13.50
2017-09-15T18:39:38.542Z,13.40
2017-09-15T18:42:06.913Z,13.40
2017-09-15T18:44:34.827Z,13.40
2017-09-15T18:47:03.212Z,13.40
2017-09-15T18:49:31.396Z,13.40
2017-09-15T18:51:59.569Z,13.40
2017-09-15T18:54:27.570Z,13.30
2017-09-15T18:56:56.187Z,13.20
2017-09-15T18:59:24.616Z,13.20
2017-09-15T19:01:52.733Z,13.20
2017-09-15T19:04:21.887Z,13.20
2017-09-15T19:06:50.347Z,13.20
2017-09-15T19:09:18.833Z,13.10
2017-09-15T19:11:47.581Z,13.10
2017-09-15T19:14:16.093Z,13.00
2017-09-15T19:16:44.557Z,13.00
2017-09-15T19:19:13.148Z,13.00
2017-09-15T19:21:41.549Z,12.90
2017-09-15T19:24:10.124Z,12.90
2017-09-15T19:26:38.863Z,12.80
2017-09-15T19:29:07.636Z,12.90
2017-09-15T19:31:36.803Z,12.80
2017-09-15T19:34:05.325Z,12.80
2017-09-15T19:36:33.947Z,12.70
2017-09-15T19:39:02.682Z,12.70
2017-09-15T19:41:31.543Z,12.70
2017-09-15T19:44:01.191Z,12.70
2017-09-15T19:46:29.761Z,12.70
2017-09-15T19:48:58.610Z,12.50
2017-09-15T19:51:27.094Z,12.50
2017-09-15T19:53:56.811Z,12.50
2017-09-15T19:56:25.588Z,12.40
2017-09-15T19:58:54.251Z,12.40
2017-09-15T20:01:22.942Z,12.40
2017-09-15T20:03:51.521Z,12.40
2017-09-15T20:06:20.058Z,12.40
2017-09-15T20:08:48.851Z,12.40
2017-09-15T20:11:17.320Z,12.40
2017-09-15T20:13:45.950Z,12.30
2017-09-15T20:16:13.903Z,12.30
2017-09-15T20:18:42.006Z,12.30
2017-09-15T20:21:10.210Z,12.30
2017-09-15T20:23:38.038Z,12.20
2017-09-15T20:26:05.648Z,12.20
2017-09-15T20:28:33.357Z,12.10
2017-09-15T20:31:01.165Z,12.20
2017-09-15T20:33:29.232Z,12.10
2017-09-15T20:35:56.791Z,12.10
2017-09-15T20:38:24.393Z,12.10
2017-09-15T20:40:52.023Z,12.10
2017-09-15T20:43:19.922Z,12.00
2017-09-15T20:45:47.400Z,12.00
2017-09-15T20:48:14.888Z,12.00
2017-09-15T20:50:42.346Z,12.00
2017-09-15T20:53:09.927Z,12.00
2017-09-15T20:55:38.643Z,12.00
2017-09-15T20:58:06.107Z,12.00
2017-09-15T21:00:34.057Z,11.90
2017-09-15T21:03:01.526Z,11.90
2017-09-15T21:05:28.988Z,11.90
2017-09-15T21:07:56.471Z,11.80
2017-09-15T21:10:23.936Z,11.80
2017-09-15T21:12:51.394Z,11.90
2017-09-15T21:15:19.297Z,11.80
2017-09-15T21:17:46.758Z,11.80
2017-09-15T21:20:14.213Z,11.80
2017-09-15T21:22:41.971Z,11.70
2017-09-15T21:25:09.425Z,11.70
2017-09-15T21:27:36.895Z,11.70
2017-09-15T21:30:04.400Z,11.70
2017-09-15T21:32:32.254Z,11.70
2017-09-15T21:34:59.718Z,11.70
2017-09-15T21:37:27.607Z,11.60
2017-09-15T21:39:55.067Z,11.60
2017-09-15T21:42:22.535Z,11.70
2017-09-15T21:44:50.026Z,11.60
2017-09-15T21:47:17.503Z,11.50
2017-09-15T21:49:45.369Z,11.50
2017-09-15T21:52:13.119Z,11.50
2017-09-15T21:54:40.580Z,11.50
2017-09-15T21:57:08.039Z,11.40
2017-09-15T21:59:35.547Z,11.40
2017-09-15T22:02:03.007Z,11.40
2017-09-15T22:04:36.339Z,11.50
2017-09-15T22:07:03.799Z,11.40
2017-09-15T22:09:31.675Z,11.40
2017-09-15T22:11:59.535Z,11.40
2017-09-15T22:14:27.398Z,11.40
2017-09-15T22:16:55.258Z,11.40
2017-09-15T22:19:23.355Z,11.40
2017-09-15T22:21:51.210Z,11.30
2017-09-15T22:24:19.339Z,11.30
2017-09-15T22:26:46.799Z,11.30
2017-09-15T22:29:14.259Z,11.30
2017-09-15T22:31:41.756Z,11.20
2017-09-15T22:34:09.209Z,11.20
2017-09-15T22:36:36.673Z,11.20
2017-09-15T22:39:04.167Z,11.10
2017-09-15T22:41:31.632Z,11.20
2017-09-15T22:43:59.095Z,11.20
2017-09-15T22:46:26.580Z,11.20
2017-09-15T22:48:54.046Z,11.10
2017-09-15T22:51:22.303Z,11.10
2017-09-15T22:53:50.177Z,11.10
2017-09-15T22:56:18.023Z,11.10
2017-09-15T22:58:45.893Z,11.10
2017-09-15T23:01:13.755Z,11.00
2017-09-15T23:03:41.625Z,11.00
2017-09-15T23:06:09.596Z,11.00
2017-09-15T23:08:37.450Z,10.90
2017-09-15T23:11:05.311Z,10.90
2017-09-15T23:13:33.212Z,10.90
2017-09-15T23:16:00.672Z,10.90
2017-09-15T23:18:28.134Z,10.80
2017-09-15T23:20:55.839Z,10.80
2017-09-15T23:23:23.299Z,10.80
2017-09-15T23:25:50.761Z,10.80
2017-09-15T23:28:18.671Z,10.80
2017-09-15T23:30:46.127Z,10.80
2017-09-15T23:33:13.595Z,10.70
2017-09-15T23:35:41.083Z,10.70
2017-09-15T23:38:08.547Z,10.70
2017-09-15T23:40:36.400Z,10.60
2017-09-15T23:43:03.971Z,10.70
2017-09-15T23:45:31.827Z,10.70
2017-09-15T23:47:59.283Z,10.70
2017-09-15T23:50:26.780Z,10.60
2017-09-15T23:52:54.248Z,10.50
2017-09-15T23:55:21.715Z,10.50
2017-09-15T23:57:49.211Z,10.50
